sensor_id;sensor_type;location;lat;lon;timestamp;pressure;altitude;pressure_sealevel;temperature;humidity
71567;BME280;59403;47.456;19.120;2023-02-17T00:00:07;101365.87;;;0.16;100.00
71567;BME280;59403;47.456;19.120;2023-02-17T00:02:35;101356.66;;;0.09;100.00
71567;BME280;59403;47.456;19.120;2023-02-17T00:05:05;101364.25;;;0.13;100.00
71567;BME280;59403;47.456;19.120;2023-02-17T00:07:32;101358.25;;;0.11;100.00
71567;BME280;59403;47.456;19.120;2023-02-17T00:09:59;101359.88;;;0.14;100.00
71567;BME280;59403;47.456;19.120;2023-02-17T00:12:26;101350.50;;;0.10;100.00
71567;BME280;59403;47.456;19.120;2023-02-17T00:14:53;101354.03;;;0.09;100.00
71567;BME280;59403;47.456;19.120;2023-02-17T00:17:20;101359.25;;;0.09;100.00
71567;BME280;59403;47.456;19.120;2023-02-17T00:19:47;101347.12;;;0.08;100.00
71567;BME280;59403;47.456;19.120;2023-02-17T00:22:15;101348.06;;;0.07;100.00
71567;BME280;59403;47.456;19.120;2023-02-17T00:24:42;101353.31;;;0.05;100.00
71567;BME280;59403;47.456;19.120;2023-02-17T00:27:09;101356.25;;;-0.03;100.00
71567;BME280;59403;47.456;19.120;2023-02-17T00:29:36;101348.31;;;0.00;100.00
71567;BME280;59403;47.456;19.120;2023-02-17T00:32:03;101355.22;;;0.02;100.00
71567;BME280;59403;47.456;19.120;2023-02-17T00:34:31;101357.81;;;0.02;100.00
71567;BME280;59403;47.456;19.120;2023-02-17T00:36:58;101345.06;;;-0.05;100.00
71567;BME280;59403;47.456;19.120;2023-02-17T00:39:26;101350.25;;;-0.05;100.00
71567;BME280;59403;47.456;19.120;2023-02-17T00:41:53;101341.59;;;-0.05;100.00
71567;BME280;59403;47.456;19.120;2023-02-17T00:44:22;101334.56;;;-0.03;100.00
71567;BME280;59403;47.456;19.120;2023-02-17T00:46:50;101335.50;;;-0.04;100.00
71567;BME280;59403;47.456;19.120;2023-02-17T00:49:19;101346.69;;;-0.02;100.00
71567;BME280;59403;47.456;19.120;2023-02-17T00:51:46;101340.56;;;-0.01;100.00
71567;BME280;59403;47.456;19.120;2023-02-17T00:54:14;101346.69;;;-0.02;100.00
71567;BME280;59403;47.456;19.120;2023-02-17T00:56:43;101354.50;;;-0.02;100.00
71567;BME280;59403;47.456;19.120;2023-02-17T00:59:10;101354.50;;;-0.02;100.00
71567;BME280;59403;47.456;19.120;2023-02-17T01:01:37;101352.69;;;0.00;100.00
71567;BME280;59403;47.456;19.120;2023-02-17T01:04:04;101350.00;;;0.02;100.00
71567;BME280;59403;47.456;19.120;2023-02-17T01:06:33;101343.03;;;0.02;100.00
71567;BME280;59403;47.456;19.120;2023-02-17T01:09:01;101350.75;;;0.03;100.00
71567;BME280;59403;47.456;19.120;2023-02-17T01:11:30;101340.25;;;0.07;100.00
71567;BME280;59403;47.456;19.120;2023-02-17T01:13:59;101334.97;;;0.08;100.00
71567;BME280;59403;47.456;19.120;2023-02-17T01:16:28;101341.72;;;0.12;100.00
71567;BME280;59403;47.456;19.120;2023-02-17T01:18:58;101340.72;;;0.15;100.00
71567;BME280;59403;47.456;19.120;2023-02-17T01:21:27;101347.66;;;0.16;100.00
71567;BME280;59403;47.456;19.120;2023-02-17T01:23:55;101348.47;;;0.16;100.00
71567;BME280;59403;47.456;19.120;2023-02-17T01:26:25;101348.53;;;0.15;100.00
71567;BME280;59403;47.456;19.120;2023-02-17T01:28:53;101342.56;;;0.13;100.00
71567;BME280;59403;47.456;19.120;2023-02-17T01:31:22;101342.56;;;0.13;100.00
71567;BME280;59403;47.456;19.120;2023-02-17T01:33:52;101337.34;;;0.13;100.00
71567;BME280;59403;47.456;19.120;2023-02-17T01:36:19;101324.31;;;0.13;100.00
71567;BME280;59403;47.456;19.120;2023-02-17T01:38:47;101324.22;;;0.16;100.00
71567;BME280;59403;47.456;19.120;2023-02-17T01:41:16;101318.06;;;0.17;100.00
71567;BME280;59403;47.456;19.120;2023-02-17T01:44:05;101330.16;;;0.18;100.00
71567;BME280;59403;47.456;19.120;2023-02-17T01:46:35;101321.53;;;0.17;100.00
71567;BME280;59403;47.456;19.120;2023-02-17T01:49:03;101311.94;;;0.18;100.00
71567;BME280;59403;47.456;19.120;2023-02-17T01:51:33;101315.53;;;0.15;100.00
71567;BME280;59403;47.456;19.120;2023-02-17T01:54:04;101312.09;;;0.15;100.00
71567;BME280;59403;47.456;19.120;2023-02-17T01:56:34;101315.69;;;0.12;100.00
71567;BME280;59403;47.456;19.120;2023-02-17T01:59:07;101321.59;;;0.16;100.00
71567;BME280;59403;47.456;19.120;2023-02-17T02:01:38;101315.69;;;0.12;100.00
71567;BME280;59403;47.456;19.120;2023-02-17T02:04:06;101311.44;;;0.10;100.00
71567;BME280;59403;47.456;19.120;2023-02-17T02:06:34;101306.31;;;0.08;100.00
71567;BME280;59403;47.456;19.120;2023-02-17T02:09:04;101303.00;;;0.05;100.00
71567;BME280;59403;47.456;19.120;2023-02-17T02:11:33;101303.84;;;0.05;100.00
71567;BME280;59403;47.456;19.120;2023-02-17T02:14:00;101318.78;;;0.02;100.00
71567;BME280;59403;47.456;19.120;2023-02-17T02:16:34;101310.88;;;0.03;100.00
71567;BME280;59403;47.456;19.120;2023-02-17T02:19:22;101300.53;;;0.02;100.00
71567;BME280;59403;47.456;19.120;2023-02-17T02:22:18;101301.50;;;-0.01;100.00
71567;BME280;59403;47.456;19.120;2023-02-17T02:24:57;101299.84;;;-0.02;100.00
71567;BME280;59403;47.456;19.120;2023-02-17T02:27:48;101293.84;;;-0.04;100.00
71567;BME280;59403;47.456;19.120;2023-02-17T02:30:32;101298.19;;;-0.05;100.00
71567;BME280;59403;47.456;19.120;2023-02-17T02:33:11;101292.28;;;-0.08;100.00
71567;BME280;59403;47.456;19.120;2023-02-17T02:35:49;101292.44;;;-0.11;100.00
71567;BME280;59403;47.456;19.120;2023-02-17T02:38:21;101283.84;;;-0.13;100.00
71567;BME280;59403;47.456;19.120;2023-02-17T02:40:53;101287.41;;;-0.16;100.00
71567;BME280;59403;47.456;19.120;2023-02-17T02:43:23;101272.84;;;-0.20;100.00
71567;BME280;59403;47.456;19.120;2023-02-17T02:45:50;101277.44;;;-0.25;100.00
71567;BME280;59403;47.456;19.120;2023-02-17T02:48:18;101278.22;;;-0.23;100.00
71567;BME280;59403;47.456;19.120;2023-02-17T02:50:57;101292.13;;;-0.24;100.00
71567;BME280;59403;47.456;19.120;2023-02-17T02:53:49;101283.44;;;-0.24;100.00
71567;BME280;59403;47.456;19.120;2023-02-17T02:56:27;101286.91;;;-0.24;100.00
71567;BME280;59403;47.456;19.120;2023-02-17T02:59:01;101284.53;;;-0.28;100.00
71567;BME280;59403;47.456;19.120;2023-02-17T03:01:36;101286.28;;;-0.29;100.00
71567;BME280;59403;47.456;19.120;2023-02-17T03:04:11;101288.81;;;-0.27;100.00
71567;BME280;59403;47.456;19.120;2023-02-17T03:06:43;101288.88;;;-0.29;100.00
71567;BME280;59403;47.456;19.120;2023-02-17T03:09:15;101291.34;;;-0.26;100.00
71567;BME280;59403;47.456;19.120;2023-02-17T03:11:43;101282.88;;;-0.31;100.00
71567;BME280;59403;47.456;19.120;2023-02-17T03:14:12;101288.09;;;-0.31;100.00
71567;BME280;59403;47.456;19.120;2023-02-17T03:16:41;101287.31;;;-0.33;100.00
71567;BME280;59403;47.456;19.120;2023-02-17T03:19:10;101276.81;;;-0.31;100.00
71567;BME280;59403;47.456;19.120;2023-02-17T03:21:40;101281.13;;;-0.30;100.00
71567;BME280;59403;47.456;19.120;2023-02-17T03:24:08;101288.09;;;-0.31;100.00
71567;BME280;59403;47.456;19.120;2023-02-17T03:26:35;101298.56;;;-0.32;100.00
71567;BME280;59403;47.456;19.120;2023-02-17T03:29:03;101302.84;;;-0.31;100.00
71567;BME280;59403;47.456;19.120;2023-02-17T03:31:30;101301.16;;;-0.32;100.00
71567;BME280;59403;47.456;19.120;2023-02-17T03:33:57;101307.16;;;-0.30;100.00
71567;BME280;59403;47.456;19.120;2023-02-17T03:36:25;101306.44;;;-0.34;100.00
71567;BME280;59403;47.456;19.120;2023-02-17T03:41:22;101293.44;;;-0.34;100.00
71567;BME280;59403;47.456;19.120;2023-02-17T03:43:49;101301.31;;;-0.35;100.00
71567;BME280;59403;47.456;19.120;2023-02-17T03:46:17;101300.53;;;-0.37;100.00
71567;BME280;59403;47.456;19.120;2023-02-17T03:48:44;101299.66;;;-0.38;100.00
71567;BME280;59403;47.456;19.120;2023-02-17T03:51:12;101297.91;;;-0.37;100.00
71567;BME280;59403;47.456;19.120;2023-02-17T03:53:42;101302.19;;;-0.36;100.00
71567;BME280;59403;47.456;19.120;2023-02-17T03:56:10;101310.16;;;-0.39;100.00
71567;BME280;59403;47.456;19.120;2023-02-17T03:58:37;101307.41;;;-0.36;100.00
71567;BME280;59403;47.456;19.120;2023-02-17T04:01:05;101307.47;;;-0.38;100.00
71567;BME280;59403;47.456;19.120;2023-02-17T04:03:33;101306.50;;;-0.35;100.00
71567;BME280;59403;47.456;19.120;2023-02-17T04:06:01;101307.63;;;-0.41;100.00
71567;BME280;59403;47.456;19.120;2023-02-17T04:08:28;101305.09;;;-0.42;100.00
71567;BME280;59403;47.456;19.120;2023-02-17T04:10:58;101294.75;;;-0.44;100.00
71567;BME280;59403;47.456;19.120;2023-02-17T04:13:26;101285.22;;;-0.45;100.00
71567;BME280;59403;47.456;19.120;2023-02-17T04:15:54;101284.44;;;-0.47;100.00
71567;BME280;59403;47.456;19.120;2023-02-17T04:18:21;101292.16;;;-0.44;100.00
71567;BME280;59403;47.456;19.120;2023-02-17T04:20:49;101292.00;;;-0.41;100.00
71567;BME280;59403;47.456;19.120;2023-02-17T04:23:17;101294.81;;;-0.45;100.00
71567;BME280;59403;47.456;19.120;2023-02-17T04:25:45;101307.69;;;-0.42;100.00
71567;BME280;59403;47.456;19.120;2023-02-17T04:28:14;101304.37;;;-0.46;100.00
71567;BME280;59403;47.456;19.120;2023-02-17T04:30:42;101299.09;;;-0.44;100.00
71567;BME280;59403;47.456;19.120;2023-02-17T04:33:09;101300.19;;;-0.50;100.00
71567;BME280;59403;47.456;19.120;2023-02-17T04:35:36;101296.81;;;-0.52;100.00
71567;BME280;59403;47.456;19.120;2023-02-17T04:38:04;101299.53;;;-0.55;100.00
71567;BME280;59403;47.456;19.120;2023-02-17T04:40:31;101294.34;;;-0.55;100.00
71567;BME280;59403;47.456;19.120;2023-02-17T04:42:58;101289.06;;;-0.53;100.00
71567;BME280;59403;47.456;19.120;2023-02-17T04:45:26;101290.00;;;-0.54;100.00
71567;BME280;59403;47.456;19.120;2023-02-17T04:47:53;101286.53;;;-0.55;100.00
71567;BME280;59403;47.456;19.120;2023-02-17T04:50:20;101277.81;;;-0.54;100.00
71567;BME280;59403;47.456;19.120;2023-02-17T04:52:48;101283.09;;;-0.55;100.00
71567;BME280;59403;47.456;19.120;2023-02-17T04:55:14;101292.47;;;-0.51;100.00
71567;BME280;59403;47.456;19.120;2023-02-17T04:57:42;101290.72;;;-0.51;100.00
71567;BME280;59403;47.456;19.120;2023-02-17T05:00:10;101284.72;;;-0.53;100.00
71567;BME280;59403;47.456;19.120;2023-02-17T05:02:38;101281.84;;;-0.47;100.00
71567;BME280;59403;47.456;19.120;2023-02-17T05:05:06;101282.84;;;-0.49;100.00
71567;BME280;59403;47.456;19.120;2023-02-17T05:07:33;101287.97;;;-0.48;100.00
71567;BME280;59403;47.456;19.120;2023-02-17T05:10:00;101293.88;;;-0.44;100.00
71567;BME280;59403;47.456;19.120;2023-02-17T05:12:26;101296.41;;;-0.43;100.00
71567;BME280;59403;47.456;19.120;2023-02-17T05:14:53;101292.84;;;-0.40;100.00
71567;BME280;59403;47.456;19.120;2023-02-17T05:17:20;101293.63;;;-0.38;100.00
71567;BME280;59403;47.456;19.120;2023-02-17T05:19:48;101292.56;;;-0.34;100.00
71567;BME280;59403;47.456;19.120;2023-02-17T05:22:15;101291.69;;;-0.33;100.00
71567;BME280;59403;47.456;19.120;2023-02-17T05:24:42;101284.59;;;-0.30;100.00
71567;BME280;59403;47.456;19.120;2023-02-17T05:27:09;101288.81;;;-0.27;100.00
71567;BME280;59403;47.456;19.120;2023-02-17T05:29:36;101282.69;;;-0.26;100.00
71567;BME280;59403;47.456;19.120;2023-02-17T05:32:03;101287.69;;;-0.22;100.00
71567;BME280;59403;47.456;19.120;2023-02-17T05:34:30;101290.94;;;-0.17;100.00
71567;BME280;59403;47.456;19.120;2023-02-17T05:36:58;101295.16;;;-0.14;100.00
71567;BME280;59403;47.456;19.120;2023-02-17T05:39:25;101294.09;;;-0.10;100.00
71567;BME280;59403;47.456;19.120;2023-02-17T05:41:52;101292.22;;;-0.07;100.00
71567;BME280;59403;47.456;19.120;2023-02-17T05:44:19;101299.84;;;-0.02;100.00
71567;BME280;59403;47.456;19.120;2023-02-17T05:46:46;101292.72;;;0.02;100.00
71567;BME280;59403;47.456;19.120;2023-02-17T05:49:12;101296.94;;;0.04;100.00
71567;BME280;59403;47.456;19.120;2023-02-17T05:51:39;101295.13;;;0.06;100.00
71567;BME280;59403;47.456;19.120;2023-02-17T05:54:07;101292.38;;;0.09;100.00
71567;BME280;59403;47.456;19.120;2023-02-17T05:56:34;101297.47;;;0.12;100.00
71567;BME280;59403;47.456;19.120;2023-02-17T05:59:01;101306.72;;;0.18;100.00
71567;BME280;59403;47.456;19.120;2023-02-17T06:01:28;101298.81;;;0.21;100.00
71567;BME280;59403;47.456;19.120;2023-02-17T06:03:55;101291.81;;;0.21;100.00
71567;BME280;59403;47.456;19.120;2023-02-17T06:06:22;101291.81;;;0.21;100.00
71567;BME280;59403;47.456;19.120;2023-02-17T06:08:49;101302.22;;;0.21;100.00
71567;BME280;59403;47.456;19.120;2023-02-17T06:11:17;101293.44;;;0.24;100.00
71567;BME280;59403;47.456;19.120;2023-02-17T06:13:44;101293.59;;;0.39;100.00
71567;BME280;59403;47.456;19.120;2023-02-17T06:16:11;101297.16;;;0.37;100.00
71567;BME280;59403;47.456;19.120;2023-02-17T06:18:38;101286.00;;;0.35;100.00
71567;BME280;59403;47.456;19.120;2023-02-17T06:21:04;101292.72;;;0.39;100.00
71567;BME280;59403;47.456;19.120;2023-02-17T06:23:31;101298.72;;;0.41;100.00
71567;BME280;59403;47.456;19.120;2023-02-17T06:25:58;101294.22;;;0.44;100.00
71567;BME280;59403;47.456;19.120;2023-02-17T06:28:26;101301.97;;;0.46;100.00
71567;BME280;59403;47.456;19.120;2023-02-17T06:30:53;101311.47;;;0.47;100.00
71567;BME280;59403;47.456;19.120;2023-02-17T06:33:20;101330.47;;;0.49;100.00
71567;BME280;59403;47.456;19.120;2023-02-17T06:35:48;101328.53;;;0.54;100.00
71567;BME280;59403;47.456;19.120;2023-02-17T06:38:15;101316.19;;;0.57;100.00
71567;BME280;59403;47.456;19.120;2023-02-17T06:40:42;101324.66;;;0.62;100.00
71567;BME280;59403;47.456;19.120;2023-02-17T06:43:09;101320.12;;;0.66;100.00
71567;BME280;59403;47.456;19.120;2023-02-17T06:45:38;101319.13;;;0.68;100.00
71567;BME280;59403;47.456;19.120;2023-02-17T06:48:05;101316.31;;;0.73;100.00
71567;BME280;59403;47.456;19.120;2023-02-17T06:50:31;101311.81;;;0.76;100.00
71567;BME280;59403;47.456;19.120;2023-02-17T06:52:59;101315.13;;;0.80;100.00
71567;BME280;59403;47.456;19.120;2023-02-17T06:55:26;101312.97;;;0.88;100.00
71567;BME280;59403;47.456;19.120;2023-02-17T06:57:53;101309.84;;;0.98;100.00
71567;BME280;59403;47.456;19.120;2023-02-17T07:00:21;101317.59;;;1.00;100.00
71567;BME280;59403;47.456;19.120;2023-02-17T07:02:49;101312.56;;;1.14;100.00
71567;BME280;59403;47.456;19.120;2023-02-17T07:05:16;101314.13;;;1.18;100.00
71567;BME280;59403;47.456;19.120;2023-02-17T07:07:43;101325.28;;;1.20;100.00
71567;BME280;59403;47.456;19.120;2023-02-17T07:10:10;101316.84;;;1.32;100.00
71567;BME280;59403;47.456;19.120;2023-02-17T07:12:38;101318.94;;;1.43;100.00
71567;BME280;59403;47.456;19.120;2023-02-17T07:15:05;101312.03;;;1.42;100.00
71567;BME280;59403;47.456;19.120;2023-02-17T07:17:32;101310.81;;;1.49;100.00
71567;BME280;59403;47.456;19.120;2023-02-17T07:20:00;101310.72;;;1.67;100.00
71567;BME280;59403;47.456;19.120;2023-02-17T07:22:27;101300.81;;;1.57;100.00
71567;BME280;59403;47.456;19.120;2023-02-17T07:24:56;101311.94;;;1.60;100.00
71567;BME280;59403;47.456;19.120;2023-02-17T07:27:25;101316.78;;;1.68;100.00
71567;BME280;59403;47.456;19.120;2023-02-17T07:29:52;101318.34;;;1.72;100.00
71567;BME280;59403;47.456;19.120;2023-02-17T07:32:20;101317.16;;;1.77;100.00
71567;BME280;59403;47.456;19.120;2023-02-17T07:34:49;101303.97;;;1.80;100.00
71567;BME280;59403;47.456;19.120;2023-02-17T07:37:18;101307.09;;;1.87;100.00
71567;BME280;59403;47.456;19.120;2023-02-17T07:42:15;101300.84;;;2.22;100.00
71567;BME280;59403;47.456;19.120;2023-02-17T07:44:43;101304.25;;;2.24;100.00
71567;BME280;59403;47.456;19.120;2023-02-17T07:47:10;101310.63;;;2.18;100.00
71567;BME280;59403;47.456;19.120;2023-02-17T07:49:39;101309.94;;;2.15;100.00
71567;BME280;59403;47.456;19.120;2023-02-17T07:52:06;101307.00;;;2.21;100.00
71567;BME280;59403;47.456;19.120;2023-02-17T07:54:36;101301.94;;;2.33;100.00
71567;BME280;59403;47.456;19.120;2023-02-17T07:57:03;101287.31;;;2.31;100.00
71567;BME280;59403;47.456;19.120;2023-02-17T07:59:30;101287.13;;;2.34;100.00
71567;BME280;59403;47.456;19.120;2023-02-17T08:01:57;101279.28;;;2.50;100.00
71567;BME280;59403;47.456;19.120;2023-02-17T08:04:24;101281.50;;;2.57;100.00
71567;BME280;59403;47.456;19.120;2023-02-17T08:06:51;101279.97;;;2.69;100.00
71567;BME280;59403;47.456;19.120;2023-02-17T08:09:18;101278.59;;;2.77;100.00
71567;BME280;59403;47.456;19.120;2023-02-17T08:12:04;101276.06;;;2.91;100.00
71567;BME280;59403;47.456;19.120;2023-02-17T08:14:48;101289.09;;;3.07;100.00
71567;BME280;59403;47.456;19.120;2023-02-17T08:17:15;101285.69;;;3.20;100.00
71567;BME280;59403;47.456;19.120;2023-02-17T08:19:42;101294.37;;;3.21;100.00
71567;BME280;59403;47.456;19.120;2023-02-17T08:22:09;101292.44;;;3.24;100.00
71567;BME280;59403;47.456;19.120;2023-02-17T08:24:36;101297.31;;;3.30;100.00
71567;BME280;59403;47.456;19.120;2023-02-17T08:27:04;101297.06;;;3.35;100.00
71567;BME280;59403;47.456;19.120;2023-02-17T08:29:31;101299.31;;;3.41;100.00
71567;BME280;59403;47.456;19.120;2023-02-17T08:31:58;101305.63;;;3.67;100.00
71567;BME280;59403;47.456;19.120;2023-02-17T08:34:25;101314.66;;;3.91;100.00
71567;BME280;59403;47.456;19.120;2023-02-17T08:36:52;101313.06;;;4.16;100.00
71567;BME280;59403;47.456;19.120;2023-02-17T08:39:19;101316.03;;;4.38;100.00
71567;BME280;59403;47.456;19.120;2023-02-17T08:41:47;101316.09;;;4.65;100.00
71567;BME280;59403;47.456;19.120;2023-02-17T08:44:17;101322.63;;;4.86;100.00
71567;BME280;59403;47.456;19.120;2023-02-17T08:46:46;101313.44;;;5.06;100.00
71567;BME280;59403;47.456;19.120;2023-02-17T08:49:14;101320.19;;;5.36;100.00
71567;BME280;59403;47.456;19.120;2023-02-17T08:51:41;101312.94;;;5.40;100.00
71567;BME280;59403;47.456;19.120;2023-02-17T08:54:11;101296.44;;;5.38;100.00
71567;BME280;59403;47.456;19.120;2023-02-17T08:56:49;101301.16;;;5.33;100.00
71567;BME280;59403;47.456;19.120;2023-02-17T08:59:17;101295.28;;;5.42;100.00
71567;BME280;59403;47.456;19.120;2023-02-17T09:01:44;101305.56;;;5.32;100.00
71567;BME280;59403;47.456;19.120;2023-02-17T09:04:12;101296.66;;;5.35;100.00
71567;BME280;59403;47.456;19.120;2023-02-17T09:06:54;101298.84;;;5.41;100.00
71567;BME280;59403;47.456;19.120;2023-02-17T09:09:24;101306.72;;;5.41;100.00
71567;BME280;59403;47.456;19.120;2023-02-17T09:11:56;101310.41;;;5.51;100.00
71567;BME280;59403;47.456;19.120;2023-02-17T09:14:40;101314.44;;;5.56;100.00
71567;BME280;59403;47.456;19.120;2023-02-17T09:17:09;101306.44;;;5.58;100.00
71567;BME280;59403;47.456;19.120;2023-02-17T09:19:37;101306.47;;;5.70;100.00
71567;BME280;59403;47.456;19.120;2023-02-17T09:22:17;101313.97;;;5.89;99.84
71567;BME280;59403;47.456;19.120;2023-02-17T09:24:45;101294.53;;;6.17;97.09
71567;BME280;59403;47.456;19.120;2023-02-17T09:27:12;101307.34;;;6.21;97.45
71567;BME280;59403;47.456;19.120;2023-02-17T09:29:40;101305.31;;;6.37;96.44
71567;BME280;59403;47.456;19.120;2023-02-17T09:32:07;101295.81;;;6.60;95.06
71567;BME280;59403;47.456;19.120;2023-02-17T09:34:35;101293.72;;;6.76;94.96
71567;BME280;59403;47.456;19.120;2023-02-17T09:37:03;101293.78;;;7.11;92.42
71567;BME280;59403;47.456;19.120;2023-02-17T09:39:30;101293.59;;;7.25;90.94
71567;BME280;59403;47.456;19.120;2023-02-17T09:41:57;101284.97;;;7.46;89.62
71567;BME280;59403;47.456;19.120;2023-02-17T09:44:26;101294.28;;;7.39;90.01
71567;BME280;59403;47.456;19.120;2023-02-17T09:47:01;101286.97;;;7.43;88.41
71567;BME280;59403;47.456;19.120;2023-02-17T09:49:35;101294.03;;;7.31;88.98
71567;BME280;59403;47.456;19.120;2023-02-17T09:52:08;101298.69;;;7.28;90.28
71567;BME280;59403;47.456;19.120;2023-02-17T09:54:49;101290.78;;;7.39;89.15
71567;BME280;59403;47.456;19.120;2023-02-17T09:57:20;101290.34;;;7.45;88.88
71567;BME280;59403;47.456;19.120;2023-02-17T09:59:53;101290.72;;;7.51;87.79
71567;BME280;59403;47.456;19.120;2023-02-17T10:02:32;101287.28;;;7.62;86.39
71567;BME280;59403;47.456;19.120;2023-02-17T10:05:04;101288.56;;;7.56;87.08
71567;BME280;59403;47.456;19.120;2023-02-17T10:07:36;101284.00;;;7.47;85.50
71567;BME280;59403;47.456;19.120;2023-02-17T10:10:08;101278.72;;;7.47;86.81
71567;BME280;59403;47.456;19.120;2023-02-17T10:12:40;101258.81;;;7.32;86.62
71567;BME280;59403;47.456;19.120;2023-02-17T10:15:12;101269.62;;;7.51;85.36
71567;BME280;59403;47.456;19.120;2023-02-17T10:17:49;101272.72;;;7.34;86.46
71567;BME280;59403;47.456;19.120;2023-02-17T10:20:19;101266.56;;;7.23;87.87
71567;BME280;59403;47.456;19.120;2023-02-17T10:22:53;101253.22;;;7.13;89.29
71567;BME280;59403;47.456;19.120;2023-02-17T10:25:40;101253.66;;;7.31;87.25
71567;BME280;59403;47.456;19.120;2023-02-17T10:28:17;101239.03;;;7.27;87.78
71567;BME280;59403;47.456;19.120;2023-02-17T10:30:50;101238.44;;;7.34;86.77
71567;BME280;59403;47.456;19.120;2023-02-17T10:33:28;101234.53;;;7.40;86.59
71567;BME280;59403;47.456;19.120;2023-02-17T10:36:09;101242.09;;;7.55;85.17
71567;BME280;59403;47.456;19.120;2023-02-17T10:38:43;101235.62;;;7.59;84.21
71567;BME280;59403;47.456;19.120;2023-02-17T10:41:15;101229.25;;;7.51;84.46
71567;BME280;59403;47.456;19.120;2023-02-17T10:43:44;101240.53;;;7.53;82.93
71567;BME280;59403;47.456;19.120;2023-02-17T10:46:26;101234.06;;;7.57;83.06
71567;BME280;59403;47.456;19.120;2023-02-17T10:48:55;101234.16;;;7.44;83.33
71567;BME280;59403;47.456;19.120;2023-02-17T10:51:25;101230.06;;;7.40;83.78
71567;BME280;59403;47.456;19.120;2023-02-17T10:53:56;101225.53;;;7.31;84.17
71567;BME280;59403;47.456;19.120;2023-02-17T10:56:31;101225.28;;;7.34;83.02
71567;BME280;59403;47.456;19.120;2023-02-17T10:59:02;101221.91;;;7.32;84.19
71567;BME280;59403;47.456;19.120;2023-02-17T11:01:33;101220.69;;;7.25;84.98
71567;BME280;59403;47.456;19.120;2023-02-17T11:04:03;101216.53;;;7.34;84.89
71567;BME280;59403;47.456;19.120;2023-02-17T11:06:31;101215.69;;;7.33;84.24
71567;BME280;59403;47.456;19.120;2023-02-17T11:09:05;101211.25;;;7.23;84.73
71567;BME280;59403;47.456;19.120;2023-02-17T11:11:35;101217.97;;;7.38;83.97
71567;BME280;59403;47.456;19.120;2023-02-17T11:14:11;101207.78;;;7.33;83.40
71567;BME280;59403;47.456;19.120;2023-02-17T11:16:41;101196.06;;;7.37;83.91
71567;BME280;59403;47.456;19.120;2023-02-17T11:19:21;101197.22;;;7.33;83.73
71567;BME280;59403;47.456;19.120;2023-02-17T11:21:54;101192.81;;;7.34;84.61
71567;BME280;59403;47.456;19.120;2023-02-17T11:24:23;101187.56;;;7.45;82.79
71567;BME280;59403;47.456;19.120;2023-02-17T11:26:55;101192.97;;;7.43;83.81
71567;BME280;59403;47.456;19.120;2023-02-17T11:29:22;101188.41;;;7.45;83.28
71567;BME280;59403;47.456;19.120;2023-02-17T11:32:02;101186.47;;;7.47;81.78
71567;BME280;59403;47.456;19.120;2023-02-17T11:34:33;101185.87;;;7.44;81.93
71567;BME280;59403;47.456;19.120;2023-02-17T11:37:04;101183.63;;;7.50;81.93
71567;BME280;59403;47.456;19.120;2023-02-17T11:39:44;101174.53;;;7.43;82.01
71567;BME280;59403;47.456;19.120;2023-02-17T11:42:14;101167.94;;;7.49;81.94
71567;BME280;59403;47.456;19.120;2023-02-17T11:44:42;101166.97;;;7.50;81.36
71567;BME280;59403;47.456;19.120;2023-02-17T11:47:15;101165.28;;;7.60;81.08
71567;BME280;59403;47.456;19.120;2023-02-17T11:50:00;101157.41;;;7.71;81.71
71567;BME280;59403;47.456;19.120;2023-02-17T11:52:50;101163.50;;;7.82;81.27
71567;BME280;59403;47.456;19.120;2023-02-17T11:55:28;101154.53;;;7.85;82.78
71567;BME280;59403;47.456;19.120;2023-02-17T11:58:16;101149.72;;;7.90;82.74
71567;BME280;59403;47.456;19.120;2023-02-17T12:00:50;101144.91;;;7.95;82.07
71567;BME280;59403;47.456;19.120;2023-02-17T12:03:51;101142.88;;;7.98;82.35
71567;BME280;59403;47.456;19.120;2023-02-17T12:06:36;101141.09;;;7.99;82.52
71567;BME280;59403;47.456;19.120;2023-02-17T12:09:14;101142.37;;;8.04;82.96
71567;BME280;59403;47.456;19.120;2023-02-17T12:11:49;101136.62;;;7.99;84.08
71567;BME280;59403;47.456;19.120;2023-02-17T12:14:44;101131.47;;;7.98;83.95
71567;BME280;59403;47.456;19.120;2023-02-17T12:17:19;101124.75;;;7.94;85.53
71567;BME280;59403;47.456;19.120;2023-02-17T12:19:58;101120.09;;;7.97;86.22
71567;BME280;59403;47.456;19.120;2023-02-17T12:22:33;101120.44;;;8.04;86.37
71567;BME280;59403;47.456;19.120;2023-02-17T12:25:13;101113.72;;;8.00;87.33
71567;BME280;59403;47.456;19.120;2023-02-17T12:27:51;101108.19;;;8.03;87.13
71567;BME280;59403;47.456;19.120;2023-02-17T12:30:30;101102.00;;;8.04;87.58
71567;BME280;59403;47.456;19.120;2023-02-17T12:33:14;101093.22;;;8.03;87.70
71567;BME280;59403;47.456;19.120;2023-02-17T12:35:49;101086.28;;;8.02;88.37
71567;BME280;59403;47.456;19.120;2023-02-17T12:38:23;101085.88;;;8.18;88.48
71567;BME280;59403;47.456;19.120;2023-02-17T12:40:53;101109.53;;;8.08;88.99
71567;BME280;59403;47.456;19.120;2023-02-17T12:43:24;101089.47;;;8.17;88.44
71567;BME280;59403;47.456;19.120;2023-02-17T12:45:55;101085.50;;;8.23;89.20
71567;BME280;59403;47.456;19.120;2023-02-17T12:48:28;101090.25;;;8.40;89.04
71567;BME280;59403;47.456;19.120;2023-02-17T12:51:03;101086.28;;;8.45;88.90
71567;BME280;59403;47.456;19.120;2023-02-17T12:53:42;101099.97;;;8.71;88.10
71567;BME280;59403;47.456;19.120;2023-02-17T12:56:41;101091.97;;;8.82;88.28
71567;BME280;59403;47.456;19.120;2023-02-17T12:59:13;101082.28;;;8.82;88.81
71567;BME280;59403;47.456;19.120;2023-02-17T13:01:48;101077.03;;;8.71;89.62